Layer de la Haye, United Kingdom
Current Conditions -  °F | °C
As of 4:50 PM on Thursday 27 Nov 2014 (Local Time) from EGUW Reporting Station
Haze Haze  
Wind Chill: 50°   Ceiling: 1200
Heat Index: 50°   Visibility: 5mi
Dew Point: 50°   Wind: 6mph
Humidity: 100%   Direction: 120°ESE
Pressure: 29.62"   Gusts: NA
Location:  51.85°N, 0.86°E
Report Text: EGUW 271650Z 12005KT 8000 BR SCT006 OVC012 10/10 Q1003 YLO1 BECMG 4000 SCT005 YLO1
Loading
Personal Weather Stations






























Interactive Weather Map New forecast layout! Learn more

10-Day Weather Forecast

Advertisements
Track Severe Weather on mobile